Lambert St Louis International Airport
KSTL : now visible

Airfield :











YOU CAN JOIN US ON...

 
LOGIN :

Register | Disclaimer

   EN    FR    IT 

 









Legend :    VFR   Marginal VFR   IFR   Intensive IFR   Very Intensive IFR
Visi :
Ceiling :
>= 8 km
>= 3000ft
5 to 8 km
1000 to 3000 ft
1500m to 5 km
500 to 1000 ft
800 to 1500m
200 to 500 ft
< 800m
< 200 ft
Symbols :   Thunderstorms  Fog  Heavy snow  Heavy precipitations  Wind > 20 kt






- Airport Elevation : 618 ft
- IATA code : STL


KSTL - Lambert St Louis International

CURRENT METAR :
  • 251751Z 36007KT 10SM BKN022 OVC044 10/04 A3010 RMK AO2 SLP195 T01000039 10100 20078 51001

EXPIRED METARs :
  • 251651Z 00000KT 10SM OVC044 09/03 A3011 RMK AO2 SLP197 T00940033
  • 251551Z 05006KT 10SM OVC043 09/03 A3010 RMK AO2 SLP195 T00890033

TAF KSTL
Valid from the 25 at 18:00 until the 27 at 00:00 UTC


251733Z 2518/2624 02005KT P6SM OVC040
FM260600 35006KT P6SM OVC020
FM261400 36009KT P6SM VCSH OVC015
FM261800 01007KT 5SM RA BR OVC009
KZKC FIR / North America



MET'MAP, your aeronautical weather chart ! - Copyright ORBIFLY December 2007 - Disclaimer

ORBIFLY MET'MAP TEAM :

Programming & Development : Alexandra Zaïnal
Concept & original design : Baudouin d'Aumeries
Assistance for programming : Marc-Olivier Méhu
Technical & hardware support : Manuel Goepfert

Contact : metmap@orbifly.com




SOURCES & CREDITS :

   NOAA       Earth
Advisory